sensor_id;sensor_type;location;lat;lon;timestamp;temperature;humidity
37410;DHT22;23275;48.914;12.566;2022-10-19T00:00:24;12.00;99.90
37410;DHT22;23275;48.914;12.566;2022-10-19T00:02:50;12.00;99.90
37410;DHT22;23275;48.914;12.566;2022-10-19T00:05:15;12.10;99.90
37410;DHT22;23275;48.914;12.566;2022-10-19T00:07:41;12.10;99.90
37410;DHT22;23275;48.914;12.566;2022-10-19T00:10:06;12.20;99.90
37410;DHT22;23275;48.914;12.566;2022-10-19T00:12:32;12.20;99.90
37410;DHT22;23275;48.914;12.566;2022-10-19T00:14:58;12.30;99.90
37410;DHT22;23275;48.914;12.566;2022-10-19T00:17:23;12.40;99.90
37410;DHT22;23275;48.914;12.566;2022-10-19T00:19:49;12.50;99.90
37410;DHT22;23275;48.914;12.566;2022-10-19T00:22:14;12.60;99.90
37410;DHT22;23275;48.914;12.566;2022-10-19T00:24:40;12.60;99.90
37410;DHT22;23275;48.914;12.566;2022-10-19T00:27:06;12.70;99.90
37410;DHT22;23275;48.914;12.566;2022-10-19T00:29:31;12.70;99.90
37410;DHT22;23275;48.914;12.566;2022-10-19T00:31:57;12.70;99.90
37410;DHT22;23275;48.914;12.566;2022-10-19T00:34:23;12.80;99.90
37410;DHT22;23275;48.914;12.566;2022-10-19T00:36:49;12.70;99.90
37410;DHT22;23275;48.914;12.566;2022-10-19T00:39:15;12.80;99.90
37410;DHT22;23275;48.914;12.566;2022-10-19T00:41:42;12.80;99.90
37410;DHT22;23275;48.914;12.566;2022-10-19T00:46:36;12.90;99.90
37410;DHT22;23275;48.914;12.566;2022-10-19T00:49:07;12.90;99.90
37410;DHT22;23275;48.914;12.566;2022-10-19T00:51:34;12.90;99.90
37410;DHT22;23275;48.914;12.566;2022-10-19T00:54:02;13.00;99.90
37410;DHT22;23275;48.914;12.566;2022-10-19T00:56:29;12.90;99.90
37410;DHT22;23275;48.914;12.566;2022-10-19T00:58:54;12.90;99.90
37410;DHT22;23275;48.914;12.566;2022-10-19T01:01:21;12.90;99.90
37410;DHT22;23275;48.914;12.566;2022-10-19T01:03:48;12.90;99.90
37410;DHT22;23275;48.914;12.566;2022-10-19T01:06:16;13.00;99.90
37410;DHT22;23275;48.914;12.566;2022-10-19T01:08:42;13.00;99.90
37410;DHT22;23275;48.914;12.566;2022-10-19T01:17:52;13.00;99.90
37410;DHT22;23275;48.914;12.566;2022-10-19T01:23:15;13.10;99.90
37410;DHT22;23275;48.914;12.566;2022-10-19T01:25:48;13.10;99.90
37410;DHT22;23275;48.914;12.566;2022-10-19T01:28:44;13.10;99.90
37410;DHT22;23275;48.914;12.566;2022-10-19T01:31:31;13.10;99.90
37410;DHT22;23275;48.914;12.566;2022-10-19T01:36:42;13.10;99.90
37410;DHT22;23275;48.914;12.566;2022-10-19T01:39:40;13.10;99.90
37410;DHT22;23275;48.914;12.566;2022-10-19T01:42:15;13.10;99.90
37410;DHT22;23275;48.914;12.566;2022-10-19T01:44:53;13.10;99.90
37410;DHT22;23275;48.914;12.566;2022-10-19T01:47:26;13.10;99.90
37410;DHT22;23275;48.914;12.566;2022-10-19T01:49:59;13.10;99.90
37410;DHT22;23275;48.914;12.566;2022-10-19T01:52:26;13.20;99.90
37410;DHT22;23275;48.914;12.566;2022-10-19T01:54:57;13.20;99.90
37410;DHT22;23275;48.914;12.566;2022-10-19T01:57:29;13.10;99.90
37410;DHT22;23275;48.914;12.566;2022-10-19T01:59:56;13.20;99.90
37410;DHT22;23275;48.914;12.566;2022-10-19T02:02:24;13.10;99.90
37410;DHT22;23275;48.914;12.566;2022-10-19T02:04:51;13.10;99.90
37410;DHT22;23275;48.914;12.566;2022-10-19T02:07:20;13.10;99.90
37410;DHT22;23275;48.914;12.566;2022-10-19T02:09:46;13.10;99.90
37410;DHT22;23275;48.914;12.566;2022-10-19T02:12:12;13.00;99.90
37410;DHT22;23275;48.914;12.566;2022-10-19T02:14:41;13.00;99.90
37410;DHT22;23275;48.914;12.566;2022-10-19T02:17:10;12.90;99.90
37410;DHT22;23275;48.914;12.566;2022-10-19T02:19:37;12.90;99.90
37410;DHT22;23275;48.914;12.566;2022-10-19T02:22:03;12.90;99.90
37410;DHT22;23275;48.914;12.566;2022-10-19T02:24:28;12.80;99.90
37410;DHT22;23275;48.914;12.566;2022-10-19T02:26:55;12.80;99.90
37410;DHT22;23275;48.914;12.566;2022-10-19T02:29:21;12.70;99.90
37410;DHT22;23275;48.914;12.566;2022-10-19T02:31:47;12.70;99.90
37410;DHT22;23275;48.914;12.566;2022-10-19T02:34:13;12.60;99.90
37410;DHT22;23275;48.914;12.566;2022-10-19T02:36:39;12.50;99.90
37410;DHT22;23275;48.914;12.566;2022-10-19T02:39:06;12.40;99.90
37410;DHT22;23275;48.914;12.566;2022-10-19T02:41:44;12.40;99.90
37410;DHT22;23275;48.914;12.566;2022-10-19T02:44:35;12.30;99.90
37410;DHT22;23275;48.914;12.566;2022-10-19T02:47:11;12.30;99.90
37410;DHT22;23275;48.914;12.566;2022-10-19T02:49:38;12.30;99.90
37410;DHT22;23275;48.914;12.566;2022-10-19T02:52:07;12.20;99.90
37410;DHT22;23275;48.914;12.566;2022-10-19T02:54:33;12.20;99.90
37410;DHT22;23275;48.914;12.566;2022-10-19T02:56:59;12.10;99.90
37410;DHT22;23275;48.914;12.566;2022-10-19T02:59:25;11.90;99.90
37410;DHT22;23275;48.914;12.566;2022-10-19T03:01:50;11.80;99.90
37410;DHT22;23275;48.914;12.566;2022-10-19T03:04:16;11.60;99.90
37410;DHT22;23275;48.914;12.566;2022-10-19T03:06:42;11.50;99.90
37410;DHT22;23275;48.914;12.566;2022-10-19T03:09:08;11.60;99.90
37410;DHT22;23275;48.914;12.566;2022-10-19T03:11:33;11.60;99.90
37410;DHT22;23275;48.914;12.566;2022-10-19T03:13:59;11.50;99.90
37410;DHT22;23275;48.914;12.566;2022-10-19T03:16:24;11.50;99.90
37410;DHT22;23275;48.914;12.566;2022-10-19T03:18:50;11.50;99.90
37410;DHT22;23275;48.914;12.566;2022-10-19T03:21:17;11.50;99.90
37410;DHT22;23275;48.914;12.566;2022-10-19T03:23:43;11.50;99.90
37410;DHT22;23275;48.914;12.566;2022-10-19T03:26:12;11.50;99.90
37410;DHT22;23275;48.914;12.566;2022-10-19T03:28:38;11.50;99.90
37410;DHT22;23275;48.914;12.566;2022-10-19T03:31:04;11.50;99.90
37410;DHT22;23275;48.914;12.566;2022-10-19T03:33:30;11.50;99.90
37410;DHT22;23275;48.914;12.566;2022-10-19T03:36:25;11.50;99.90
37410;DHT22;23275;48.914;12.566;2022-10-19T03:38:52;11.50;99.90
37410;DHT22;23275;48.914;12.566;2022-10-19T03:41:19;11.60;99.90
37410;DHT22;23275;48.914;12.566;2022-10-19T03:43:45;11.60;99.90
37410;DHT22;23275;48.914;12.566;2022-10-19T03:46:11;11.60;99.90
37410;DHT22;23275;48.914;12.566;2022-10-19T03:48:36;11.50;99.90
37410;DHT22;23275;48.914;12.566;2022-10-19T03:51:05;11.40;99.90
37410;DHT22;23275;48.914;12.566;2022-10-19T03:53:32;11.30;99.90
37410;DHT22;23275;48.914;12.566;2022-10-19T03:58:38;11.30;99.90
37410;DHT22;23275;48.914;12.566;2022-10-19T04:01:14;11.30;99.90
37410;DHT22;23275;48.914;12.566;2022-10-19T04:03:40;11.20;99.90
37410;DHT22;23275;48.914;12.566;2022-10-19T04:06:15;11.20;99.90
37410;DHT22;23275;48.914;12.566;2022-10-19T04:08:41;11.20;99.90
37410;DHT22;23275;48.914;12.566;2022-10-19T04:11:10;11.10;99.90
37410;DHT22;23275;48.914;12.566;2022-10-19T04:13:37;11.10;99.90
37410;DHT22;23275;48.914;12.566;2022-10-19T04:16:03;11.20;99.90
37410;DHT22;23275;48.914;12.566;2022-10-19T04:18:29;11.20;99.90
37410;DHT22;23275;48.914;12.566;2022-10-19T04:20:56;11.20;99.90
37410;DHT22;23275;48.914;12.566;2022-10-19T04:23:21;11.20;99.90
37410;DHT22;23275;48.914;12.566;2022-10-19T04:25:47;11.10;99.90
37410;DHT22;23275;48.914;12.566;2022-10-19T04:28:12;11.20;99.90
37410;DHT22;23275;48.914;12.566;2022-10-19T04:30:38;11.20;99.90
37410;DHT22;23275;48.914;12.566;2022-10-19T04:33:03;11.20;99.90
37410;DHT22;23275;48.914;12.566;2022-10-19T04:35:29;11.30;99.90
37410;DHT22;23275;48.914;12.566;2022-10-19T04:37:55;11.30;99.90
37410;DHT22;23275;48.914;12.566;2022-10-19T04:40:20;11.30;99.90
37410;DHT22;23275;48.914;12.566;2022-10-19T04:42:46;11.30;99.90
37410;DHT22;23275;48.914;12.566;2022-10-19T04:45:11;11.40;99.90
37410;DHT22;23275;48.914;12.566;2022-10-19T04:47:37;11.30;99.90
37410;DHT22;23275;48.914;12.566;2022-10-19T04:50:02;11.30;99.90
37410;DHT22;23275;48.914;12.566;2022-10-19T04:52:28;11.30;99.90
37410;DHT22;23275;48.914;12.566;2022-10-19T04:54:54;11.30;99.90
37410;DHT22;23275;48.914;12.566;2022-10-19T04:57:19;11.30;99.90
37410;DHT22;23275;48.914;12.566;2022-10-19T04:59:46;11.30;99.90
37410;DHT22;23275;48.914;12.566;2022-10-19T05:02:11;11.30;99.90
37410;DHT22;23275;48.914;12.566;2022-10-19T05:04:37;11.30;99.90
37410;DHT22;23275;48.914;12.566;2022-10-19T05:07:03;11.30;99.90
37410;DHT22;23275;48.914;12.566;2022-10-19T05:09:28;11.30;99.90
37410;DHT22;23275;48.914;12.566;2022-10-19T05:11:54;11.30;99.90
37410;DHT22;23275;48.914;12.566;2022-10-19T05:14:19;11.30;99.90
37410;DHT22;23275;48.914;12.566;2022-10-19T05:16:45;11.20;99.90
37410;DHT22;23275;48.914;12.566;2022-10-19T05:19:13;11.20;99.90
37410;DHT22;23275;48.914;12.566;2022-10-19T05:21:38;11.20;99.90
37410;DHT22;23275;48.914;12.566;2022-10-19T05:24:04;11.10;99.90
37410;DHT22;23275;48.914;12.566;2022-10-19T05:26:30;11.00;99.90
37410;DHT22;23275;48.914;12.566;2022-10-19T05:29:00;11.00;99.90
37410;DHT22;23275;48.914;12.566;2022-10-19T05:31:32;11.00;99.90
37410;DHT22;23275;48.914;12.566;2022-10-19T05:33:59;11.00;99.90
37410;DHT22;23275;48.914;12.566;2022-10-19T05:36:30;11.00;99.90
37410;DHT22;23275;48.914;12.566;2022-10-19T05:39:01;11.00;99.90
37410;DHT22;23275;48.914;12.566;2022-10-19T05:41:27;11.10;99.90
37410;DHT22;23275;48.914;12.566;2022-10-19T05:43:54;11.10;99.90
37410;DHT22;23275;48.914;12.566;2022-10-19T05:46:20;11.10;99.90
37410;DHT22;23275;48.914;12.566;2022-10-19T05:48:46;11.10;99.90
37410;DHT22;23275;48.914;12.566;2022-10-19T05:51:14;11.20;99.90
37410;DHT22;23275;48.914;12.566;2022-10-19T05:53:40;11.10;99.90
37410;DHT22;23275;48.914;12.566;2022-10-19T05:56:07;11.20;99.90
37410;DHT22;23275;48.914;12.566;2022-10-19T05:58:34;11.20;99.90
37410;DHT22;23275;48.914;12.566;2022-10-19T06:01:00;11.20;99.90
37410;DHT22;23275;48.914;12.566;2022-10-19T06:03:26;11.20;99.90
37410;DHT22;23275;48.914;12.566;2022-10-19T06:05:53;11.30;99.90
37410;DHT22;23275;48.914;12.566;2022-10-19T06:08:20;11.30;99.90
37410;DHT22;23275;48.914;12.566;2022-10-19T06:10:47;11.40;99.90
37410;DHT22;23275;48.914;12.566;2022-10-19T06:13:13;11.40;99.90
37410;DHT22;23275;48.914;12.566;2022-10-19T06:15:39;11.50;99.90
37410;DHT22;23275;48.914;12.566;2022-10-19T06:18:09;11.50;99.90
37410;DHT22;23275;48.914;12.566;2022-10-19T06:20:37;11.50;99.90
37410;DHT22;23275;48.914;12.566;2022-10-19T06:23:04;11.60;99.90
37410;DHT22;23275;48.914;12.566;2022-10-19T06:25:30;11.60;99.90
37410;DHT22;23275;48.914;12.566;2022-10-19T06:27:56;11.70;99.90
37410;DHT22;23275;48.914;12.566;2022-10-19T06:30:22;11.70;99.90
37410;DHT22;23275;48.914;12.566;2022-10-19T06:32:47;11.70;99.90
37410;DHT22;23275;48.914;12.566;2022-10-19T06:35:13;11.70;99.90
37410;DHT22;23275;48.914;12.566;2022-10-19T06:37:40;11.70;99.90
37410;DHT22;23275;48.914;12.566;2022-10-19T06:40:06;11.70;99.90
37410;DHT22;23275;48.914;12.566;2022-10-19T06:42:32;11.80;99.90
37410;DHT22;23275;48.914;12.566;2022-10-19T06:44:57;11.80;99.90
37410;DHT22;23275;48.914;12.566;2022-10-19T06:47:23;11.80;99.90
37410;DHT22;23275;48.914;12.566;2022-10-19T06:49:58;11.80;99.90
37410;DHT22;23275;48.914;12.566;2022-10-19T06:52:23;11.80;99.90
37410;DHT22;23275;48.914;12.566;2022-10-19T06:54:49;11.80;99.90
37410;DHT22;23275;48.914;12.566;2022-10-19T06:57:14;11.90;99.90
37410;DHT22;23275;48.914;12.566;2022-10-19T06:59:40;11.90;99.90
37410;DHT22;23275;48.914;12.566;2022-10-19T07:02:06;12.00;99.90
37410;DHT22;23275;48.914;12.566;2022-10-19T07:04:31;12.00;99.90
37410;DHT22;23275;48.914;12.566;2022-10-19T07:06:57;12.10;99.90
37410;DHT22;23275;48.914;12.566;2022-10-19T07:09:22;12.10;99.90
37410;DHT22;23275;48.914;12.566;2022-10-19T07:11:48;12.20;99.90
37410;DHT22;23275;48.914;12.566;2022-10-19T07:14:13;12.20;99.90
37410;DHT22;23275;48.914;12.566;2022-10-19T07:16:39;12.20;99.90
37410;DHT22;23275;48.914;12.566;2022-10-19T07:19:05;12.20;99.90
37410;DHT22;23275;48.914;12.566;2022-10-19T07:21:30;12.30;99.90
37410;DHT22;23275;48.914;12.566;2022-10-19T07:23:56;12.30;99.90
37410;DHT22;23275;48.914;12.566;2022-10-19T07:26:24;12.30;99.90
37410;DHT22;23275;48.914;12.566;2022-10-19T07:28:52;12.40;99.90
37410;DHT22;23275;48.914;12.566;2022-10-19T07:31:20;12.50;99.90
37410;DHT22;23275;48.914;12.566;2022-10-19T07:34:00;12.50;99.90
37410;DHT22;23275;48.914;12.566;2022-10-19T07:36:27;12.60;99.90
37410;DHT22;23275;48.914;12.566;2022-10-19T07:38:53;12.60;99.90
37410;DHT22;23275;48.914;12.566;2022-10-19T07:41:21;12.60;99.90
37410;DHT22;23275;48.914;12.566;2022-10-19T07:43:47;12.60;99.90
37410;DHT22;23275;48.914;12.566;2022-10-19T07:46:16;12.60;99.90
37410;DHT22;23275;48.914;12.566;2022-10-19T07:48:43;12.70;99.90
37410;DHT22;23275;48.914;12.566;2022-10-19T07:51:10;12.60;99.90
37410;DHT22;23275;48.914;12.566;2022-10-19T07:53:37;12.70;99.90
37410;DHT22;23275;48.914;12.566;2022-10-19T07:56:07;12.70;99.90
37410;DHT22;23275;48.914;12.566;2022-10-19T07:58:33;12.70;99.90
37410;DHT22;23275;48.914;12.566;2022-10-19T08:01:05;12.70;99.90
37410;DHT22;23275;48.914;12.566;2022-10-19T08:03:31;12.80;99.90
37410;DHT22;23275;48.914;12.566;2022-10-19T08:06:01;12.80;99.90
37410;DHT22;23275;48.914;12.566;2022-10-19T08:08:27;12.80;99.90
37410;DHT22;23275;48.914;12.566;2022-10-19T08:10:53;12.90;99.90
37410;DHT22;23275;48.914;12.566;2022-10-19T08:13:19;13.00;99.90
37410;DHT22;23275;48.914;12.566;2022-10-19T08:15:44;13.10;99.90
37410;DHT22;23275;48.914;12.566;2022-10-19T08:18:10;13.10;99.90
37410;DHT22;23275;48.914;12.566;2022-10-19T08:20:39;13.10;99.90
37410;DHT22;23275;48.914;12.566;2022-10-19T08:23:04;13.20;99.90
37410;DHT22;23275;48.914;12.566;2022-10-19T08:25:30;13.20;99.90
37410;DHT22;23275;48.914;12.566;2022-10-19T08:27:55;13.20;99.90
37410;DHT22;23275;48.914;12.566;2022-10-19T08:30:21;13.40;99.90
37410;DHT22;23275;48.914;12.566;2022-10-19T08:32:46;13.50;99.90
37410;DHT22;23275;48.914;12.566;2022-10-19T08:35:12;13.50;99.90
37410;DHT22;23275;48.914;12.566;2022-10-19T08:37:38;13.60;99.90
37410;DHT22;23275;48.914;12.566;2022-10-19T08:40:04;13.60;99.90
37410;DHT22;23275;48.914;12.566;2022-10-19T08:42:51;13.70;99.90
37410;DHT22;23275;48.914;12.566;2022-10-19T08:50:23;13.90;99.90
37410;DHT22;23275;48.914;12.566;2022-10-19T08:56:20;14.80;99.90
37410;DHT22;23275;48.914;12.566;2022-10-19T09:01:55;16.70;99.90
37410;DHT22;23275;48.914;12.566;2022-10-19T09:04:40;17.60;99.90
37410;DHT22;23275;48.914;12.566;2022-10-19T09:07:21;17.90;99.90
37410;DHT22;23275;48.914;12.566;2022-10-19T09:10:16;17.40;99.90
37410;DHT22;23275;48.914;12.566;2022-10-19T09:12:59;17.20;99.90
37410;DHT22;23275;48.914;12.566;2022-10-19T09:15:41;17.20;99.90
37410;DHT22;23275;48.914;12.566;2022-10-19T09:18:25;17.60;99.90
37410;DHT22;23275;48.914;12.566;2022-10-19T09:20:58;19.60;99.90
37410;DHT22;23275;48.914;12.566;2022-10-19T09:23:32;21.60;99.90
37410;DHT22;23275;48.914;12.566;2022-10-19T09:26:00;21.90;99.90
37410;DHT22;23275;48.914;12.566;2022-10-19T09:28:58;21.10;99.90
37410;DHT22;23275;48.914;12.566;2022-10-19T09:31:31;20.60;99.90
37410;DHT22;23275;48.914;12.566;2022-10-19T09:34:01;22.80;99.90
37410;DHT22;23275;48.914;12.566;2022-10-19T09:36:43;25.20;99.90
37410;DHT22;23275;48.914;12.566;2022-10-19T09:39:13;26.50;99.90
37410;DHT22;23275;48.914;12.566;2022-10-19T09:41:46;26.60;99.90
37410;DHT22;23275;48.914;12.566;2022-10-19T09:44:12;25.80;99.90
37410;DHT22;23275;48.914;12.566;2022-10-19T09:46:46;24.40;99.90
37410;DHT22;23275;48.914;12.566;2022-10-19T09:49:17;22.80;99.90
37410;DHT22;23275;48.914;12.566;2022-10-19T09:51:51;24.30;99.90
37410;DHT22;23275;48.914;12.566;2022-10-19T09:56:58;28.60;99.90
37410;DHT22;23275;48.914;12.566;2022-10-19T09:59:28;29.50;99.90
37410;DHT22;23275;48.914;12.566;2022-10-19T10:02:14;30.30;99.90
37410;DHT22;23275;48.914;12.566;2022-10-19T10:04:40;29.10;99.90
37410;DHT22;23275;48.914;12.566;2022-10-19T10:07:08;29.50;99.90
37410;DHT22;23275;48.914;12.566;2022-10-19T10:09:38;31.00;99.70
37410;DHT22;23275;48.914;12.566;2022-10-19T10:12:05;31.70;96.80
37410;DHT22;23275;48.914;12.566;2022-10-19T10:14:34;32.30;94.70
37410;DHT22;23275;48.914;12.566;2022-10-19T10:17:11;32.40;93.40
37410;DHT22;23275;48.914;12.566;2022-10-19T10:20:34;32.70;92.90
37410;DHT22;23275;48.914;12.566;2022-10-19T10:22:35;32.90;91.00
37410;DHT22;23275;48.914;12.566;2022-10-19T10:25:11;32.90;90.30
37410;DHT22;23275;48.914;12.566;2022-10-19T10:27:37;33.30;89.70
37410;DHT22;23275;48.914;12.566;2022-10-19T10:30:08;33.90;87.40
37410;DHT22;23275;48.914;12.566;2022-10-19T10:32:43;34.50;83.50
37410;DHT22;23275;48.914;12.566;2022-10-19T10:35:25;34.60;80.20
37410;DHT22;23275;48.914;12.566;2022-10-19T10:37:52;34.90;78.80
37410;DHT22;23275;48.914;12.566;2022-10-19T10:40:29;34.40;77.90
37410;DHT22;23275;48.914;12.566;2022-10-19T10:43:00;33.70;79.00
37410;DHT22;23275;48.914;12.566;2022-10-19T10:45:37;32.70;80.90
37410;DHT22;23275;48.914;12.566;2022-10-19T10:50:51;27.90;90.90
37410;DHT22;23275;48.914;12.566;2022-10-19T10:53:36;26.20;93.20
37410;DHT22;23275;48.914;12.566;2022-10-19T10:56:03;25.10;96.10
37410;DHT22;23275;48.914;12.566;2022-10-19T10:58:41;24.10;97.80
37410;DHT22;23275;48.914;12.566;2022-10-19T11:01:19;23.40;99.30
37410;DHT22;23275;48.914;12.566;2022-10-19T11:03:54;23.00;98.20
37410;DHT22;23275;48.914;12.566;2022-10-19T11:06:23;22.20;98.10
37410;DHT22;23275;48.914;12.566;2022-10-19T11:09:28;21.60;98.60
37410;DHT22;23275;48.914;12.566;2022-10-19T11:11:56;21.00;99.70
37410;DHT22;23275;48.914;12.566;2022-10-19T11:14:34;20.50;99.90
37410;DHT22;23275;48.914;12.566;2022-10-19T11:17:11;20.20;99.90
37410;DHT22;23275;48.914;12.566;2022-10-19T11:19:41;19.90;99.90
37410;DHT22;23275;48.914;12.566;2022-10-19T11:22:28;19.60;99.90
37410;DHT22;23275;48.914;12.566;2022-10-19T11:25:20;19.40;99.90
37410;DHT22;23275;48.914;12.566;2022-10-19T11:30:21;19.10;99.90
37410;DHT22;23275;48.914;12.566;2022-10-19T11:33:30;19.20;99.90
37410;DHT22;23275;48.914;12.566;2022-10-19T11:35:58;19.30;99.90
37410;DHT22;23275;48.914;12.566;2022-10-19T11:41:31;19.30;99.90
37410;DHT22;23275;48.914;12.566;2022-10-19T11:44:23;19.00;99.90
37410;DHT22;23275;48.914;12.566;2022-10-19T11:47:07;18.60;99.90
37410;DHT22;23275;48.914;12.566;2022-10-19T11:52:50;18.30;99.90
37410;DHT22;23275;48.914;12.566;2022-10-19T11:55:41;18.10;99.90
37410;DHT22;23275;48.914;12.566;2022-10-19T11:58:46;18.10;99.90
37410;DHT22;23275;48.914;12.566;2022-10-19T12:09:28;18.00;99.90
37410;DHT22;23275;48.914;12.566;2022-10-19T12:14:42;17.80;99.90
37410;DHT22;23275;48.914;12.566;2022-10-19T12:17:20;17.80;99.90
37410;DHT22;23275;48.914;12.566;2022-10-19T12:19:51;17.60;99.90
37410;DHT22;23275;48.914;12.566;2022-10-19T12:22:21;17.60;99.90
37410;DHT22;23275;48.914;12.566;2022-10-19T12:24:47;17.60;99.90
37410;DHT22;23275;48.914;12.566;2022-10-19T12:27:26;17.60;99.90
37410;DHT22;23275;48.914;12.566;2022-10-19T12:29:54;17.70;99.90
37410;DHT22;23275;48.914;12.566;2022-10-19T12:32:23;17.60;99.90
37410;DHT22;23275;48.914;12.566;2022-10-19T12:35:15;17.60;99.90
37410;DHT22;23275;48.914;12.566;2022-10-19T12:37:54;17.60;99.90
37410;DHT22;23275;48.914;12.566;2022-10-19T12:40:42;17.60;99.90
37410;DHT22;23275;48.914;12.566;2022-10-19T12:43:18;17.40;99.90
37410;DHT22;23275;48.914;12.566;2022-10-19T12:48:33;17.40;99.90
37410;DHT22;23275;48.914;12.566;2022-10-19T12:51:03;17.40;99.90
37410;DHT22;23275;48.914;12.566;2022-10-19T12:53:38;17.40;99.90
37410;DHT22;23275;48.914;12.566;2022-10-19T12:56:22;17.30;99.90
37410;DHT22;23275;48.914;12.566;2022-10-19T12:58:49;17.20;99.90
37410;DHT22;23275;48.914;12.566;2022-10-19T13:01:26;17.20;99.90
37410;DHT22;23275;48.914;12.566;2022-10-19T13:06:42;17.20;99.90
37410;DHT22;23275;48.914;12.566;2022-10-19T13:15:01;16.90;99.90
37410;DHT22;23275;48.914;12.566;2022-10-19T13:22:50;16.90;99.90
37410;DHT22;23275;48.914;12.566;2022-10-19T13:25:42;17.00;99.90
37410;DHT22;23275;48.914;12.566;2022-10-19T13:39:13;16.90;99.90
37410;DHT22;23275;48.914;12.566;2022-10-19T13:46:21;16.70;99.90
37410;DHT22;23275;48.914;12.566;2022-10-19T13:49:07;16.70;99.90
37410;DHT22;23275;48.914;12.566;2022-10-19T14:09:04;16.40;99.90
37410;DHT22;23275;48.914;12.566;2022-10-19T14:11:43;16.30;99.90
37410;DHT22;23275;48.914;12.566;2022-10-19T14:16:54;16.30;99.90
37410;DHT22;23275;48.914;12.566;2022-10-19T14:22:26;16.20;99.90
37410;DHT22;23275;48.914;12.566;2022-10-19T14:25:21;16.20;99.90
37410;DHT22;23275;48.914;12.566;2022-10-19T14:27:54;16.10;99.90
37410;DHT22;23275;48.914;12.566;2022-10-19T14:30:33;16.10;99.90
37410;DHT22;23275;48.914;12.566;2022-10-19T14:33:09;16.10;99.90
37410;DHT22;23275;48.914;12.566;2022-10-19T14:35:38;16.10;99.90
37410;DHT22;23275;48.914;12.566;2022-10-19T14:40:39;16.00;99.90
37410;DHT22;23275;48.914;12.566;2022-10-19T14:43:37;15.90;99.90
37410;DHT22;23275;48.914;12.566;2022-10-19T14:48:45;15.80;99.90
37410;DHT22;23275;48.914;12.566;2022-10-19T14:51:44;15.80;99.90
37410;DHT22;23275;48.914;12.566;2022-10-19T14:54:30;15.70;99.90
37410;DHT22;23275;48.914;12.566;2022-10-19T14:57:13;15.60;99.90
37410;DHT22;23275;48.914;12.566;2022-10-19T15:02:17;15.50;99.90
37410;DHT22;23275;48.914;12.566;2022-10-19T15:04:45;15.50;99.90
37410;DHT22;23275;48.914;12.566;2022-10-19T15:07:16;15.40;99.90
37410;DHT22;23275;48.914;12.566;2022-10-19T15:09:46;15.40;99.90
37410;DHT22;23275;48.914;12.566;2022-10-19T15:12:27;15.40;99.90
37410;DHT22;23275;48.914;12.566;2022-10-19T15:14:53;15.30;99.90
37410;DHT22;23275;48.914;12.566;2022-10-19T15:17:27;15.30;99.90
37410;DHT22;23275;48.914;12.566;2022-10-19T15:19:55;15.20;99.90
37410;DHT22;23275;48.914;12.566;2022-10-19T15:22:38;15.20;99.90
37410;DHT22;23275;48.914;12.566;2022-10-19T15:27:38;15.10;99.90
37410;DHT22;23275;48.914;12.566;2022-10-19T15:30:22;15.10;99.90
37410;DHT22;23275;48.914;12.566;2022-10-19T15:40:47;14.80;99.90
37410;DHT22;23275;48.914;12.566;2022-10-19T15:43:36;14.70;99.90
37410;DHT22;23275;48.914;12.566;2022-10-19T15:53:59;14.50;99.90
37410;DHT22;23275;48.914;12.566;2022-10-19T15:56:28;14.40;99.90
37410;DHT22;23275;48.914;12.566;2022-10-19T15:58:56;14.30;99.90
37410;DHT22;23275;48.914;12.566;2022-10-19T16:01:24;14.20;99.90
37410;DHT22;23275;48.914;12.566;2022-10-19T16:03:51;14.10;99.90
37410;DHT22;23275;48.914;12.566;2022-10-19T16:06:18;14.00;99.90
37410;DHT22;23275;48.914;12.566;2022-10-19T16:08:44;14.00;99.90
37410;DHT22;23275;48.914;12.566;2022-10-19T16:11:17;13.90;99.90
37410;DHT22;23275;48.914;12.566;2022-10-19T16:13:43;13.80;99.90
37410;DHT22;23275;48.914;12.566;2022-10-19T16:16:12;13.70;99.90
37410;DHT22;23275;48.914;12.566;2022-10-19T16:18:42;13.60;99.90
37410;DHT22;23275;48.914;12.566;2022-10-19T16:21:08;13.50;99.90
37410;DHT22;23275;48.914;12.566;2022-10-19T16:23:33;13.50;99.90
37410;DHT22;23275;48.914;12.566;2022-10-19T16:26:00;13.40;99.90
37410;DHT22;23275;48.914;12.566;2022-10-19T16:28:26;13.30;99.90
37410;DHT22;23275;48.914;12.566;2022-10-19T16:30:53;13.20;99.90
37410;DHT22;23275;48.914;12.566;2022-10-19T16:33:19;13.10;99.90
37410;DHT22;23275;48.914;12.566;2022-10-19T16:35:45;13.10;99.90
37410;DHT22;23275;48.914;12.566;2022-10-19T16:38:11;13.00;99.90
37410;DHT22;23275;48.914;12.566;2022-10-19T16:40:36;12.90;99.90
37410;DHT22;23275;48.914;12.566;2022-10-19T16:43:02;12.90;99.90
37410;DHT22;23275;48.914;12.566;2022-10-19T16:45:29;12.90;99.90
37410;DHT22;23275;48.914;12.566;2022-10-19T16:47:56;12.90;99.90
37410;DHT22;23275;48.914;12.566;2022-10-19T16:50:21;12.80;99.90
37410;DHT22;23275;48.914;12.566;2022-10-19T16:52:47;12.80;99.90
37410;DHT22;23275;48.914;12.566;2022-10-19T16:55:13;12.80;99.90
37410;DHT22;23275;48.914;12.566;2022-10-19T16:57:38;12.70;99.90
37410;DHT22;23275;48.914;12.566;2022-10-19T17:00:05;12.70;99.90
37410;DHT22;23275;48.914;12.566;2022-10-19T17:02:31;12.60;99.90
37410;DHT22;23275;48.914;12.566;2022-10-19T17:04:56;12.60;99.90
37410;DHT22;23275;48.914;12.566;2022-10-19T17:07:22;12.50;99.90
37410;DHT22;23275;48.914;12.566;2022-10-19T17:09:48;12.50;99.90
37410;DHT22;23275;48.914;12.566;2022-10-19T17:12:14;12.50;99.90
37410;DHT22;23275;48.914;12.566;2022-10-19T17:14:40;12.50;99.90
37410;DHT22;23275;48.914;12.566;2022-10-19T17:17:07;12.40;99.90
37410;DHT22;23275;48.914;12.566;2022-10-19T17:19:34;12.40;99.90
37410;DHT22;23275;48.914;12.566;2022-10-19T17:21:59;12.30;99.90
37410;DHT22;23275;48.914;12.566;2022-10-19T17:24:27;12.30;99.90
37410;DHT22;23275;48.914;12.566;2022-10-19T17:26:53;12.30;99.90
37410;DHT22;23275;48.914;12.566;2022-10-19T17:29:20;12.20;99.90
37410;DHT22;23275;48.914;12.566;2022-10-19T17:31:47;12.20;99.90
37410;DHT22;23275;48.914;12.566;2022-10-19T17:34:14;12.20;99.90
37410;DHT22;23275;48.914;12.566;2022-10-19T17:36:42;12.20;99.90
37410;DHT22;23275;48.914;12.566;2022-10-19T17:39:14;12.20;99.90
37410;DHT22;23275;48.914;12.566;2022-10-19T17:41:42;12.10;99.90
37410;DHT22;23275;48.914;12.566;2022-10-19T17:44:07;12.10;99.90
37410;DHT22;23275;48.914;12.566;2022-10-19T17:46:34;12.10;99.90
37410;DHT22;23275;48.914;12.566;2022-10-19T17:48:59;12.10;99.90